Terminal Aerodrome Forecast
Issued by NWS

Home | Current Version | Previous Version | Graphics & Text | Print | Product List | Glossary On
Versions: 1 2 3 4 5 6 7 8 9 10 11 12 13 14 15
000
FTUS43 KOAX 300500
TAFCDR
TAF
KCDR 300535Z 3006/3106 VRB04KT P6SM SCT080 OVC150
     FM301800 25007KT P6SM SCT150
     FM310200 18009KT P6SM FEW150=

USA.gov is the U.S. government's official web portal to all federal, state and local government web resources and services.